Terminal Aerodrome Forecast
Issued by NWS

Home | Current Version | Previous Version | Text Only | Print | Product List | Glossary On
Versions: 1 2 3 4 5 6 7 8 9 10 11 12 13 14 15 16 17 18 19 20 21
000
FTUS43 KDVN 281131
TAFBRL
TAF
KBRL 281131Z 2812/2912 14006KT P6SM SCT200
     FM281600 17008KT P6SM VCTS SCT040CB BKN200
     FM290300 19008KT 2SM TSRA BKN030CB OVC070
     FM290900 29008KT P6SM SCT250=

USA.gov is the U.S. government's official web portal to all federal, state and local government web resources and services.